Terminal Aerodrome Forecast
Issued by NWS Jacksonville, FL

Home | Current Version | Previous Version | Text Only | Print | Product List | Glossary On
Versions: 1 2 3 4 5 6 7 8 9 10 11 12 13 14 15
000
FTUS42 KJAX 181149
TAFSSI
TAF
KSSI 181149Z 1812/1912 24004KT P6SM SCT025 BKN250
      TEMPO 1812/1813 4SM BR
     FM181500 22006KT P6SM SCT010 BKN020 OVC030
     FM190000 21005KT 3SM BR SCT003 OVC012
     FM190400 25004KT 1/2SM FG OVC003=

USA.gov is the U.S. government's official web portal to all federal, state and local government web resources and services.